Main page


Airports :

Manchester, England

Manchester Airport

latitude: 53-21N, longitude: 002-17W, elevation: 69 m

Current weather observation

The report was made 18 minutes ago, at 17:20 UTC
Wind 6 kt from the Northwest
Temperature 8°C
Humidity 57%
Pressure 1032 hPa
Visibility 10 km or more

METAR: EGCC 201720Z AUTO 32006KT 9999 NCD 08/M00 Q1032 NOSIG

Time: 17:38 (17:38 UTC)


The report was made 38 minutes ago, at 17:00 UTC
Forecast valid from 20 at 18 UTC to 21 at 24 UTC
Wind 9 kt from the North
Visibility 10 km or more
Scattered clouds at a height of 3000 ft
from 20 at 23 UTC to 21 at 02 UTC
Visibility: 3000 m
mist, Shallow fog
Probability 30%
from 21 at 02 UTC to 21 at 08 UTC
Visibility: 0300 m
freezing fog
from 21 at 07 UTC to 21 at 10 UTC
Visibility 10 km or more
from 21 at 14 UTC to 21 at 24 UTC
Visibility: 7000 m
Broken clouds at a height of 1400 ft
light rain

TAF: EGCC 201700Z 2018/2124 36009KT 9999 SCT030 BECMG 2023/2102 3000 BR MIFG PROB30 2102/2108 0300 FZFG VV/// BECMG 2107/2110 9999 NSW TEMPO 2114/2124 7000 -RA BKN014

Weather observations and forecasts of more than 4000 airports (METAR and TAF reports).

The available stations are represented by yellow and red dots on the map.

Hover mouse over dot to see the name of the station.

Then click to see weather observations and forecasts.

To change the map : click on the green buttons with a black cross to zoom in, on the green button with a dash to zoom out, or on the green arrows for adjacent maps.